createdAt,value
2022-09-18T00:00:03.029Z,2.10
2022-09-18T00:01:36.787Z,1.90
2022-09-18T00:03:08.696Z,2.00
2022-09-18T00:04:41.416Z,1.87
2022-09-18T00:06:15.829Z,2.10
2022-09-18T00:07:48.513Z,1.80
2022-09-18T00:09:21.290Z,1.90
2022-09-18T00:10:54.010Z,1.80
2022-09-18T00:12:28.037Z,2.10
2022-09-18T00:14:00.711Z,2.20
2022-09-18T00:15:33.457Z,1.80
2022-09-18T00:17:09.160Z,1.73
2022-09-18T00:18:43.023Z,2.15
2022-09-18T00:20:15.849Z,1.80
2022-09-18T00:21:50.705Z,1.87
2022-09-18T00:23:23.394Z,2.13
2022-09-18T00:24:56.074Z,2.07
2022-09-18T00:26:28.554Z,1.80
2022-09-18T00:28:02.875Z,1.80
2022-09-18T00:29:35.548Z,1.90
2022-09-18T00:31:09.693Z,2.00
2022-09-18T00:32:42.422Z,1.73
2022-09-18T00:34:15.516Z,1.63
2022-09-18T00:35:48.545Z,1.55
2022-09-18T00:37:21.265Z,1.88
2022-09-18T00:38:53.761Z,1.50
2022-09-18T00:40:26.498Z,1.63
2022-09-18T00:41:59.254Z,1.40
2022-09-18T00:43:35.219Z,1.50
2022-09-18T00:45:10.537Z,1.50
2022-09-18T00:46:44.898Z,1.70
2022-09-18T00:48:18.643Z,1.40
2022-09-18T00:49:56.969Z,1.48
2022-09-18T00:51:31.809Z,1.60
2022-09-18T00:53:06.184Z,1.60
2022-09-18T00:54:41.701Z,1.60
2022-09-18T00:56:16.760Z,1.30
2022-09-18T00:57:53.881Z,1.10
2022-09-18T00:59:30.089Z,1.33
2022-09-18T01:01:02.805Z,1.40
2022-09-18T01:02:35.534Z,1.53
2022-09-18T01:04:12.317Z,1.40
2022-09-18T01:05:58.792Z,1.20
2022-09-18T01:07:43.828Z,1.40
2022-09-18T01:09:28.838Z,1.00
2022-09-18T01:11:31.284Z,1.30
2022-09-18T01:13:10.485Z,1.25
2022-09-18T01:14:53.975Z,1.20
2022-09-18T01:16:33.711Z,1.17
2022-09-18T01:18:17.039Z,1.40
2022-09-18T01:20:12.417Z,1.30
2022-09-18T01:21:55.045Z,1.10
2022-09-18T01:24:09.389Z,1.00
2022-09-18T01:25:56.773Z,1.20
2022-09-18T01:27:37.268Z,1.33
2022-09-18T01:29:17.404Z,1.10
2022-09-18T01:30:55.472Z,1.33
2022-09-18T01:32:32.133Z,1.33
2022-09-18T01:34:09.964Z,1.10
2022-09-18T01:35:48.476Z,1.10
2022-09-18T01:37:29.020Z,1.30
2022-09-18T01:39:06.269Z,1.13
2022-09-18T01:40:45.473Z,1.10
2022-09-18T01:42:22.043Z,1.20
2022-09-18T01:43:58.065Z,1.10
2022-09-18T01:45:34.561Z,0.97
2022-09-18T01:47:11.369Z,1.40
2022-09-18T01:48:49.576Z,1.23
2022-09-18T01:50:23.300Z,1.50
2022-09-18T01:52:00.713Z,1.23
2022-09-18T01:53:36.948Z,1.00
2022-09-18T01:55:17.448Z,1.20
2022-09-18T01:56:53.560Z,1.00
2022-09-18T01:58:28.249Z,1.20
2022-09-18T02:00:03.643Z,1.47
2022-09-18T02:01:39.523Z,1.20
2022-09-18T02:03:17.121Z,1.20
2022-09-18T02:04:54.417Z,1.17
2022-09-18T02:06:35.342Z,1.00
2022-09-18T02:08:12.905Z,0.80
2022-09-18T02:09:45.855Z,1.17
2022-09-18T02:11:20.350Z,1.30
2022-09-18T02:12:54.273Z,1.08
2022-09-18T02:14:30.664Z,1.30
2022-09-18T02:16:08.401Z,1.10
2022-09-18T02:17:47.790Z,1.10
2022-09-18T02:19:27.684Z,1.23
2022-09-18T02:21:02.332Z,1.20
2022-09-18T02:22:35.075Z,1.75
2022-09-18T02:24:11.169Z,1.10
2022-09-18T02:25:46.885Z,1.20
2022-09-18T02:27:20.371Z,1.10
2022-09-18T02:28:54.054Z,1.10
2022-09-18T02:30:27.801Z,1.15
2022-09-18T02:32:01.131Z,1.02
2022-09-18T02:33:38.624Z,1.00
2022-09-18T02:35:12.397Z,1.00
2022-09-18T02:36:59.632Z,1.05
2022-09-18T02:38:37.084Z,1.00
2022-09-18T02:40:24.266Z,1.03
2022-09-18T02:42:08.820Z,1.10
2022-09-18T02:43:49.259Z,1.00
2022-09-18T02:45:28.553Z,1.13
2022-09-18T02:47:11.768Z,1.00
2022-09-18T02:49:00.236Z,1.08
2022-09-18T02:50:40.383Z,1.00
2022-09-18T02:52:18.967Z,0.90
2022-09-18T02:53:59.671Z,1.07
2022-09-18T02:55:41.917Z,0.90
2022-09-18T02:57:19.710Z,1.20
2022-09-18T02:58:55.879Z,0.88
2022-09-18T03:00:31.739Z,1.00
2022-09-18T03:02:05.328Z,1.00
2022-09-18T03:03:39.696Z,1.17
2022-09-18T03:05:13.782Z,1.10
2022-09-18T03:06:46.525Z,1.00
2022-09-18T03:08:19.377Z,1.17
2022-09-18T03:09:52.058Z,1.00
2022-09-18T03:11:24.771Z,1.00
2022-09-18T03:12:56.592Z,0.90
2022-09-18T03:14:29.305Z,0.90
2022-09-18T03:16:01.530Z,1.00
2022-09-18T03:17:34.298Z,0.90
2022-09-18T03:19:06.041Z,0.98
2022-09-18T03:20:41.606Z,1.23
2022-09-18T03:22:14.353Z,0.75
2022-09-18T03:23:47.062Z,0.90
2022-09-18T03:25:19.755Z,1.10
2022-09-18T03:26:53.260Z,0.90
2022-09-18T03:28:26.032Z,0.82
2022-09-18T03:29:57.901Z,0.90
2022-09-18T03:31:30.646Z,0.70
2022-09-18T03:33:02.469Z,0.98
2022-09-18T03:34:35.153Z,0.90
2022-09-18T03:36:09.439Z,0.90
2022-09-18T03:37:42.141Z,0.82
2022-09-18T03:39:16.118Z,0.87
2022-09-18T03:40:49.374Z,0.97
2022-09-18T03:42:22.102Z,0.82
2022-09-18T03:43:54.031Z,0.63
2022-09-18T03:45:26.815Z,0.80
2022-09-18T03:46:59.612Z,0.80
2022-09-18T03:48:31.402Z,0.88
2022-09-18T03:50:04.285Z,1.00
2022-09-18T03:51:38.289Z,0.80
2022-09-18T03:53:10.043Z,0.90
2022-09-18T03:54:42.735Z,0.80
2022-09-18T03:56:16.023Z,0.90
2022-09-18T03:57:47.991Z,0.90
2022-09-18T03:59:20.721Z,0.93
2022-09-18T04:00:53.521Z,0.80
2022-09-18T04:02:25.310Z,0.90
2022-09-18T04:03:58.109Z,0.70
2022-09-18T04:05:30.867Z,0.85
2022-09-18T04:07:04.024Z,0.73
2022-09-18T04:08:37.788Z,0.60
2022-09-18T04:10:09.757Z,0.67
2022-09-18T04:11:42.448Z,0.73
2022-09-18T04:13:15.261Z,0.63
2022-09-18T04:14:47.959Z,0.77
2022-09-18T04:16:21.044Z,0.85
2022-09-18T04:17:53.788Z,0.80
2022-09-18T04:19:26.469Z,0.70
2022-09-18T04:20:59.219Z,0.90
2022-09-18T04:22:33.337Z,0.57
2022-09-18T04:24:06.233Z,0.80
2022-09-18T04:25:38.051Z,0.63
2022-09-18T04:27:10.722Z,0.80
2022-09-18T04:28:43.418Z,0.70
2022-09-18T04:30:16.296Z,0.70
2022-09-18T04:31:49.028Z,0.80
2022-09-18T04:33:21.924Z,0.88
2022-09-18T04:34:54.640Z,0.60
2022-09-18T04:36:27.440Z,0.65
2022-09-18T04:38:01.643Z,0.87
2022-09-18T04:39:34.678Z,0.88
2022-09-18T04:41:07.410Z,0.70
2022-09-18T04:42:40.411Z,0.70
2022-09-18T04:44:13.182Z,0.60
2022-09-18T04:45:45.968Z,1.02
2022-09-18T04:47:18.653Z,0.70
2022-09-18T04:48:50.620Z,0.80
2022-09-18T04:50:23.359Z,0.80
2022-09-18T04:51:55.088Z,0.77
2022-09-18T04:53:29.143Z,0.80
2022-09-18T04:55:00.881Z,0.60
2022-09-18T04:56:33.628Z,0.70
2022-09-18T04:58:05.802Z,0.70
2022-09-18T04:59:38.815Z,0.60
2022-09-18T05:01:11.608Z,0.80
2022-09-18T05:02:43.587Z,0.50
2022-09-18T05:04:16.531Z,0.80
2022-09-18T05:05:49.317Z,0.80
2022-09-18T05:07:22.049Z,0.85
2022-09-18T05:08:56.100Z,0.70
2022-09-18T05:10:29.336Z,0.70
2022-09-18T05:12:02.283Z,0.60
2022-09-18T05:13:34.965Z,0.70
2022-09-18T05:15:08.707Z,0.70
2022-09-18T05:16:41.396Z,0.77
2022-09-18T05:18:14.340Z,0.70
2022-09-18T05:19:47.012Z,0.60
2022-09-18T05:21:20.001Z,0.80
2022-09-18T05:22:52.689Z,0.60
2022-09-18T05:24:26.736Z,0.70
2022-09-18T05:25:59.399Z,0.90
2022-09-18T05:27:34.190Z,0.60
2022-09-18T05:29:07.032Z,0.70
2022-09-18T05:30:39.883Z,0.60
2022-09-18T05:32:12.773Z,0.90
2022-09-18T05:33:45.552Z,0.70
2022-09-18T05:35:18.251Z,0.70
2022-09-18T05:36:50.923Z,0.70
2022-09-18T05:38:23.691Z,0.80
2022-09-18T05:39:57.769Z,0.83
2022-09-18T05:41:30.445Z,0.90
2022-09-18T05:43:03.724Z,0.60
2022-09-18T05:44:36.438Z,0.70
2022-09-18T05:46:09.196Z,0.90
2022-09-18T05:47:42.102Z,0.70
2022-09-18T05:49:15.090Z,0.70
2022-09-18T05:50:48.393Z,0.70
2022-09-18T05:52:21.068Z,0.70
2022-09-18T05:53:53.725Z,0.63
2022-09-18T05:55:31.568Z,0.70
2022-09-18T05:57:04.832Z,0.63
2022-09-18T05:58:37.494Z,0.60
2022-09-18T06:00:11.887Z,0.60
2022-09-18T06:01:47.138Z,0.70
2022-09-18T06:03:19.270Z,0.63
2022-09-18T06:04:51.996Z,0.70
2022-09-18T06:06:24.756Z,0.60
2022-09-18T06:07:59.936Z,0.50
2022-09-18T06:09:33.126Z,0.80
2022-09-18T06:11:07.241Z,0.77
2022-09-18T06:12:39.003Z,0.40
2022-09-18T06:14:11.682Z,0.50
2022-09-18T06:15:46.745Z,0.52
2022-09-18T06:17:19.446Z,0.70
2022-09-18T06:18:52.161Z,0.55
2022-09-18T06:20:24.899Z,0.30
2022-09-18T06:21:57.562Z,0.40
2022-09-18T06:23:30.306Z,0.40
2022-09-18T06:25:02.281Z,0.33
2022-09-18T06:26:36.639Z,0.50
2022-09-18T06:28:09.338Z,0.33
2022-09-18T06:29:42.050Z,0.40
2022-09-18T06:31:14.755Z,0.50
2022-09-18T06:32:47.461Z,0.37
2022-09-18T06:34:20.135Z,0.45
2022-09-18T06:35:52.920Z,1.20
2022-09-18T06:37:25.648Z,1.80
2022-09-18T06:38:58.476Z,1.43
2022-09-18T06:40:31.694Z,1.00
2022-09-18T06:42:06.689Z,0.70
2022-09-18T06:43:39.377Z,0.60
2022-09-18T06:45:12.228Z,0.52
2022-09-18T06:46:44.930Z,0.50
2022-09-18T06:48:17.660Z,0.50
2022-09-18T06:49:50.329Z,0.50
2022-09-18T06:51:23.041Z,0.53
2022-09-18T06:52:54.758Z,0.60
2022-09-18T06:54:27.440Z,0.60
2022-09-18T06:56:02.312Z,0.60
2022-09-18T06:57:35.465Z,0.60
2022-09-18T06:59:08.380Z,0.50
2022-09-18T07:00:40.185Z,0.90
2022-09-18T07:02:19.219Z,0.50
2022-09-18T07:03:52.353Z,0.50
2022-09-18T07:05:26.503Z,0.60
2022-09-18T07:06:59.167Z,0.70
2022-09-18T07:08:31.982Z,0.50
2022-09-18T07:10:09.019Z,0.90
2022-09-18T07:11:42.001Z,0.70
2022-09-18T07:13:16.009Z,0.65
2022-09-18T07:14:48.667Z,0.63
2022-09-18T07:16:21.498Z,0.67
2022-09-18T07:17:56.897Z,0.50
2022-09-18T07:19:29.551Z,0.70
2022-09-18T07:21:02.529Z,0.60
2022-09-18T07:22:35.229Z,0.60
2022-09-18T07:24:08.241Z,0.70
2022-09-18T07:25:40.904Z,0.40
2022-09-18T07:27:12.608Z,0.53
2022-09-18T07:28:46.832Z,0.57
2022-09-18T07:30:20.201Z,0.70
2022-09-18T07:31:52.865Z,0.63
2022-09-18T07:33:25.547Z,0.70
2022-09-18T07:34:58.270Z,0.50
2022-09-18T07:36:32.062Z,0.47
2022-09-18T07:38:07.424Z,0.60
2022-09-18T07:39:40.228Z,0.67
2022-09-18T07:41:12.917Z,0.60
2022-09-18T07:42:45.605Z,0.70
2022-09-18T07:44:19.611Z,0.70
2022-09-18T07:45:52.272Z,0.70
2022-09-18T07:47:25.349Z,0.80
2022-09-18T07:48:58.069Z,0.63
2022-09-18T07:50:30.755Z,0.50
2022-09-18T07:52:03.416Z,0.50
2022-09-18T07:53:37.536Z,0.60
2022-09-18T07:55:10.506Z,0.50
2022-09-18T07:56:46.740Z,0.67
2022-09-18T07:58:19.968Z,0.63
2022-09-18T07:59:54.364Z,0.60
2022-09-18T08:01:27.098Z,0.57
2022-09-18T08:03:04.201Z,0.67
2022-09-18T08:04:36.963Z,0.90
2022-09-18T08:06:09.758Z,0.80
2022-09-18T08:07:41.486Z,0.80
2022-09-18T08:09:14.169Z,0.90
2022-09-18T08:10:45.934Z,1.00
2022-09-18T08:12:18.997Z,0.90
2022-09-18T08:13:52.278Z,0.97
2022-09-18T08:15:26.372Z,0.90
2022-09-18T08:16:59.088Z,1.10
2022-09-18T08:18:31.819Z,1.00
2022-09-18T08:20:06.704Z,0.97
2022-09-18T08:21:39.407Z,1.40
2022-09-18T08:23:12.577Z,1.10
2022-09-18T08:24:45.253Z,1.30
2022-09-18T08:26:22.155Z,1.40
2022-09-18T08:27:55.205Z,1.23
2022-09-18T08:29:28.357Z,1.30
2022-09-18T08:31:02.477Z,1.10
2022-09-18T08:32:35.587Z,1.40
2022-09-18T08:34:09.304Z,1.30
2022-09-18T08:35:42.686Z,1.30
2022-09-18T08:37:14.433Z,1.40
2022-09-18T08:38:47.121Z,1.20
2022-09-18T08:40:24.868Z,1.33
2022-09-18T08:42:08.329Z,1.40
2022-09-18T08:43:53.713Z,1.50
2022-09-18T08:45:41.469Z,1.30
2022-09-18T08:47:20.246Z,1.50
2022-09-18T08:49:00.233Z,1.50
2022-09-18T08:50:38.503Z,1.50
2022-09-18T08:52:14.818Z,1.60
2022-09-18T08:53:53.504Z,1.60
2022-09-18T08:55:29.937Z,1.90
2022-09-18T08:57:15.361Z,1.43
2022-09-18T08:58:53.691Z,2.07
2022-09-18T09:00:32.044Z,1.77
2022-09-18T09:02:25.020Z,1.70
2022-09-18T09:04:02.838Z,1.60
2022-09-18T09:05:44.811Z,1.70
2022-09-18T09:07:43.336Z,1.50
2022-09-18T09:09:37.355Z,1.57
2022-09-18T09:11:16.894Z,1.50
2022-09-18T09:12:59.672Z,1.73
2022-09-18T09:14:57.253Z,1.60
2022-09-18T09:16:42.114Z,1.93
2022-09-18T09:18:19.391Z,1.43
2022-09-18T09:19:55.312Z,1.50
2022-09-18T09:21:48.745Z,1.40
2022-09-18T09:23:37.628Z,1.50
2022-09-18T09:25:20.327Z,1.13
2022-09-18T09:26:54.919Z,1.43
2022-09-18T09:28:31.501Z,1.40
2022-09-18T09:30:07.770Z,1.43
2022-09-18T09:31:44.584Z,1.27
2022-09-18T09:33:23.152Z,1.27
2022-09-18T09:35:04.977Z,1.30
2022-09-18T09:36:39.257Z,1.40
2022-09-18T09:38:31.141Z,1.40
2022-09-18T09:40:11.312Z,1.20
2022-09-18T09:41:47.779Z,1.13
2022-09-18T09:43:28.051Z,1.17
2022-09-18T09:45:04.960Z,1.20
2022-09-18T09:46:53.136Z,1.10
2022-09-18T09:48:31.336Z,1.00
2022-09-18T09:50:13.595Z,1.40
2022-09-18T09:51:53.921Z,1.07
2022-09-18T09:53:28.583Z,1.10
2022-09-18T09:55:10.886Z,1.10
2022-09-18T09:56:50.931Z,1.10
2022-09-18T09:58:38.908Z,1.10
2022-09-18T10:00:17.806Z,1.30
2022-09-18T10:01:56.265Z,1.13
2022-09-18T10:03:55.145Z,1.10
2022-09-18T10:05:35.760Z,1.33
2022-09-18T10:07:18.905Z,1.30
2022-09-18T10:08:58.052Z,1.10
2022-09-18T10:10:39.398Z,0.97
2022-09-18T10:12:22.084Z,1.00
2022-09-18T10:13:59.588Z,1.07
2022-09-18T10:15:37.455Z,1.20
2022-09-18T10:17:12.509Z,1.10
2022-09-18T10:18:48.388Z,1.10
2022-09-18T10:20:27.293Z,1.20
2022-09-18T10:22:00.084Z,1.30
2022-09-18T10:23:39.667Z,1.20
2022-09-18T10:25:20.802Z,1.20
2022-09-18T10:26:57.897Z,1.10
2022-09-18T10:28:30.910Z,1.00
2022-09-18T10:30:12.276Z,1.00
2022-09-18T10:31:50.145Z,1.00
2022-09-18T10:33:34.308Z,1.20
2022-09-18T10:35:42.634Z,1.20
2022-09-18T10:37:17.608Z,1.20
2022-09-18T10:38:51.089Z,1.00
2022-09-18T10:40:31.388Z,1.50
2022-09-18T10:42:06.958Z,1.70
2022-09-18T10:43:54.176Z,1.20
2022-09-18T10:45:29.094Z,1.43
2022-09-18T10:47:07.156Z,1.33
2022-09-18T10:48:44.091Z,1.60
2022-09-18T10:50:19.297Z,1.30
2022-09-18T10:52:16.305Z,1.40
2022-09-18T10:54:05.385Z,1.50
2022-09-18T10:55:52.682Z,1.23
2022-09-18T10:57:30.739Z,1.50
2022-09-18T10:59:35.305Z,1.27
2022-09-18T11:01:09.257Z,1.20
2022-09-18T11:02:47.307Z,1.17
2022-09-18T11:04:21.309Z,1.30
2022-09-18T11:05:58.184Z,1.33
2022-09-18T11:07:32.332Z,1.33
2022-09-18T11:09:10.622Z,1.30
2022-09-18T11:10:48.661Z,1.53
2022-09-18T11:12:24.754Z,1.13
2022-09-18T11:13:58.631Z,1.50
2022-09-18T11:15:35.595Z,1.30
2022-09-18T11:17:28.884Z,1.73
2022-09-18T11:19:08.082Z,1.43
2022-09-18T11:20:43.394Z,1.20
2022-09-18T11:22:35.833Z,1.60
2022-09-18T11:24:19.988Z,1.30
2022-09-18T11:26:12.037Z,1.37
2022-09-18T11:27:49.106Z,1.43
2022-09-18T11:29:27.896Z,1.30
2022-09-18T11:31:06.043Z,1.83
2022-09-18T11:32:39.089Z,1.30
2022-09-18T11:34:23.316Z,1.83
2022-09-18T11:36:00.491Z,1.50
2022-09-18T11:37:38.976Z,1.07
2022-09-18T11:39:17.117Z,1.30
2022-09-18T11:40:53.229Z,1.53
2022-09-18T11:42:25.961Z,1.30
2022-09-18T11:44:04.274Z,1.20
2022-09-18T11:45:46.933Z,1.43
2022-09-18T11:47:26.874Z,1.17
2022-09-18T11:49:06.124Z,1.30
2022-09-18T11:50:40.465Z,1.17
2022-09-18T11:52:17.640Z,1.40
2022-09-18T11:53:57.609Z,1.17
2022-09-18T11:55:42.784Z,1.27
2022-09-18T11:57:19.390Z,1.30
2022-09-18T11:58:56.160Z,1.30
2022-09-18T12:00:32.844Z,1.30
2022-09-18T12:02:15.484Z,1.37
2022-09-18T12:03:54.633Z,1.20
2022-09-18T12:05:34.709Z,1.17
2022-09-18T12:07:16.064Z,1.13
2022-09-18T12:08:55.660Z,1.20
2022-09-18T12:10:45.069Z,1.10
2022-09-18T12:12:23.307Z,1.20
2022-09-18T12:14:12.594Z,1.23
2022-09-18T12:15:50.608Z,1.20
2022-09-18T12:17:28.677Z,1.10
2022-09-18T12:19:05.907Z,1.10
2022-09-18T12:20:42.732Z,1.00
2022-09-18T12:22:19.937Z,1.10
2022-09-18T12:23:53.988Z,1.20
2022-09-18T12:25:34.151Z,1.27
2022-09-18T12:27:19.467Z,1.23
2022-09-18T12:29:10.713Z,1.13
2022-09-18T12:30:49.196Z,1.00
2022-09-18T12:32:34.033Z,1.10
2022-09-18T12:34:17.583Z,1.00
2022-09-18T12:36:05.487Z,1.13
2022-09-18T12:37:50.993Z,1.10
2022-09-18T12:39:46.018Z,1.30
2022-09-18T12:41:36.725Z,1.00
2022-09-18T12:43:41.195Z,1.10
2022-09-18T12:45:40.601Z,1.30
2022-09-18T12:47:26.643Z,0.90
2022-09-18T12:49:14.979Z,1.27
2022-09-18T12:51:00.394Z,1.30
2022-09-18T12:53:00.504Z,1.20
2022-09-18T12:54:57.936Z,1.10
2022-09-18T12:56:44.048Z,1.60
2022-09-18T12:58:36.705Z,1.20
2022-09-18T13:00:12.299Z,1.10
2022-09-18T13:01:49.846Z,1.00
2022-09-18T13:03:26.776Z,1.13
2022-09-18T13:05:03.527Z,1.20
2022-09-18T13:06:42.421Z,1.07
2022-09-18T13:08:19.973Z,1.10
2022-09-18T13:09:59.996Z,1.10
2022-09-18T13:11:38.216Z,1.20
2022-09-18T13:13:15.413Z,1.03
2022-09-18T13:14:54.408Z,1.17
2022-09-18T13:16:34.450Z,1.10
2022-09-18T13:18:18.437Z,1.30
2022-09-18T13:19:55.123Z,1.20
2022-09-18T13:21:31.000Z,1.03
2022-09-18T13:23:04.303Z,1.27
2022-09-18T13:24:39.995Z,1.30
2022-09-18T13:26:16.206Z,1.20
2022-09-18T13:27:50.124Z,1.30
2022-09-18T13:29:47.389Z,1.10
2022-09-18T13:31:26.245Z,1.20
2022-09-18T13:32:59.813Z,1.30
2022-09-18T13:34:31.608Z,1.30
2022-09-18T13:36:04.362Z,1.47
2022-09-18T13:37:37.119Z,1.30
2022-09-18T13:39:18.521Z,1.30
2022-09-18T13:41:00.042Z,1.23
2022-09-18T13:42:37.303Z,1.10
2022-09-18T13:44:19.462Z,1.17
2022-09-18T13:45:52.707Z,1.10
2022-09-18T13:47:25.495Z,1.30
2022-09-18T13:48:59.879Z,1.40
2022-09-18T13:50:34.777Z,1.20
2022-09-18T13:52:29.494Z,1.43
2022-09-18T13:54:30.033Z,1.00
2022-09-18T13:56:04.927Z,1.20
2022-09-18T13:57:39.849Z,1.60
2022-09-18T13:59:21.443Z,1.63
2022-09-18T14:00:55.005Z,1.60
2022-09-18T14:02:33.699Z,1.60
2022-09-18T14:05:05.291Z,1.60
2022-09-18T14:06:46.826Z,1.33
2022-09-18T14:08:38.833Z,1.53
2022-09-18T14:10:27.169Z,1.23
2022-09-18T14:12:12.350Z,1.30
2022-09-18T14:13:51.742Z,1.30
2022-09-18T14:15:26.437Z,0.93
2022-09-18T14:17:12.817Z,1.13
2022-09-18T14:19:02.513Z,1.30
2022-09-18T14:20:35.879Z,1.10
2022-09-18T14:22:24.088Z,1.20
2022-09-18T14:24:36.383Z,1.23
2022-09-18T14:26:29.719Z,1.20
2022-09-18T14:28:06.315Z,1.20
2022-09-18T14:29:38.443Z,1.10
2022-09-18T14:31:13.959Z,1.03
2022-09-18T14:33:05.410Z,1.10
2022-09-18T14:34:40.319Z,1.30
2022-09-18T14:36:14.932Z,1.10
2022-09-18T14:37:47.117Z,1.20
2022-09-18T14:39:24.627Z,1.27
2022-09-18T14:41:18.799Z,1.30
2022-09-18T14:42:52.085Z,1.37
2022-09-18T14:44:28.619Z,1.40
2022-09-18T14:46:01.406Z,1.30
2022-09-18T14:47:33.224Z,1.30
2022-09-18T14:49:26.077Z,1.17
2022-09-18T14:51:01.685Z,1.30
2022-09-18T14:52:43.873Z,1.30
2022-09-18T14:54:22.723Z,1.50
2022-09-18T14:55:58.707Z,1.20
2022-09-18T14:57:35.549Z,1.10
2022-09-18T14:59:15.049Z,1.13
2022-09-18T15:00:55.024Z,1.17
2022-09-18T15:02:32.452Z,1.40
2022-09-18T15:04:07.504Z,1.10
2022-09-18T15:05:40.352Z,1.23
2022-09-18T15:07:18.492Z,1.40
2022-09-18T15:08:54.196Z,1.40
2022-09-18T15:10:28.118Z,1.20
2022-09-18T15:12:02.891Z,1.30
2022-09-18T15:13:38.624Z,1.33
2022-09-18T15:15:29.850Z,1.30
2022-09-18T15:17:06.228Z,1.60
2022-09-18T15:18:43.187Z,1.30
2022-09-18T15:20:16.904Z,1.37
2022-09-18T15:21:49.992Z,1.57
2022-09-18T15:23:27.325Z,1.80
2022-09-18T15:25:01.874Z,2.00
2022-09-18T15:26:44.283Z,1.90
2022-09-18T15:28:20.661Z,1.80
2022-09-18T15:29:59.205Z,1.40
2022-09-18T15:31:33.628Z,1.10
2022-09-18T15:33:16.050Z,1.30
2022-09-18T15:34:50.423Z,1.50
2022-09-18T15:36:28.861Z,1.43
2022-09-18T15:38:03.757Z,1.30
2022-09-18T15:39:38.873Z,1.40
2022-09-18T15:41:32.214Z,1.33
2022-09-18T15:43:06.673Z,1.50
2022-09-18T15:45:23.374Z,1.33
2022-09-18T15:46:56.264Z,1.27
2022-09-18T15:48:41.831Z,1.20
2022-09-18T15:50:48.537Z,1.30
2022-09-18T15:52:37.216Z,1.73
2022-09-18T15:54:26.243Z,1.10
2022-09-18T15:56:10.268Z,1.33
2022-09-18T15:57:48.953Z,1.30
2022-09-18T15:59:29.539Z,1.30
2022-09-18T16:01:04.703Z,1.20
2022-09-18T16:02:39.189Z,1.10
2022-09-18T16:04:20.580Z,1.10
2022-09-18T16:05:53.784Z,1.50
2022-09-18T16:07:29.502Z,1.17
2022-09-18T16:09:05.229Z,1.97
2022-09-18T16:10:51.246Z,1.70
2022-09-18T16:12:43.035Z,1.10
2022-09-18T16:14:41.601Z,1.50
2022-09-18T16:16:21.719Z,1.30
2022-09-18T16:18:20.118Z,2.10
2022-09-18T16:19:54.189Z,1.50
2022-09-18T16:21:30.027Z,1.40
2022-09-18T16:23:15.080Z,1.47
2022-09-18T16:24:47.806Z,1.20
2022-09-18T16:26:27.975Z,1.30
2022-09-18T16:28:02.003Z,1.40
2022-09-18T16:29:35.575Z,1.30
2022-09-18T16:31:08.392Z,1.30
2022-09-18T16:32:41.133Z,1.20
2022-09-18T16:34:21.717Z,1.20
2022-09-18T16:35:57.748Z,1.00
2022-09-18T16:37:30.819Z,1.30
2022-09-18T16:39:07.798Z,1.20
2022-09-18T16:40:42.103Z,1.30
2022-09-18T16:42:17.016Z,1.60
2022-09-18T16:43:51.270Z,1.60
2022-09-18T16:45:24.036Z,1.20
2022-09-18T16:47:01.291Z,1.50
2022-09-18T16:48:36.077Z,1.30
2022-09-18T16:50:09.559Z,1.37
2022-09-18T16:51:43.626Z,1.40
2022-09-18T16:53:16.819Z,1.50
2022-09-18T16:54:49.536Z,1.40
2022-09-18T16:56:27.115Z,1.27
2022-09-18T16:58:00.799Z,1.40
2022-09-18T16:59:35.969Z,1.30
2022-09-18T17:01:08.807Z,1.37
2022-09-18T17:02:41.745Z,1.30
2022-09-18T17:04:14.905Z,1.53
2022-09-18T17:05:47.717Z,1.03
2022-09-18T17:07:20.875Z,1.30
2022-09-18T17:08:53.567Z,1.53
2022-09-18T17:10:26.579Z,1.20
2022-09-18T17:11:59.574Z,1.60
2022-09-18T17:13:32.248Z,1.40
2022-09-18T17:15:05.399Z,1.70
2022-09-18T17:16:44.696Z,1.53
2022-09-18T17:18:18.047Z,1.80
2022-09-18T17:19:50.737Z,1.47
2022-09-18T17:21:24.784Z,1.43
2022-09-18T17:22:58.847Z,1.50
2022-09-18T17:24:31.532Z,1.90
2022-09-18T17:26:06.154Z,2.27
2022-09-18T17:27:43.035Z,1.90
2022-09-18T17:29:16.617Z,2.00
2022-09-18T17:30:50.728Z,1.50
2022-09-18T17:32:23.625Z,1.77
2022-09-18T17:33:57.327Z,1.57
2022-09-18T17:35:30.018Z,1.90
2022-09-18T17:37:04.141Z,1.60
2022-09-18T17:38:39.533Z,1.67
2022-09-18T17:40:12.653Z,1.50
2022-09-18T17:41:45.682Z,1.50
2022-09-18T17:43:18.468Z,1.73
2022-09-18T17:44:51.808Z,2.10
2022-09-18T17:46:24.588Z,1.90
2022-09-18T17:47:57.286Z,1.60
2022-09-18T17:49:31.893Z,2.10
2022-09-18T17:51:11.785Z,1.73
2022-09-18T17:52:44.485Z,1.70
2022-09-18T17:54:19.049Z,1.60
2022-09-18T17:55:51.880Z,1.80
2022-09-18T17:57:25.558Z,1.63
2022-09-18T17:58:59.871Z,1.63
2022-09-18T18:00:32.636Z,1.80
2022-09-18T18:02:05.584Z,1.80
2022-09-18T18:03:39.206Z,1.63
2022-09-18T18:05:11.980Z,1.90
2022-09-18T18:06:48.783Z,2.00
2022-09-18T18:08:21.767Z,2.20
2022-09-18T18:09:55.911Z,2.50
2022-09-18T18:11:29.463Z,2.30
2022-09-18T18:13:02.369Z,2.40
2022-09-18T18:14:35.549Z,2.13
2022-09-18T18:16:10.249Z,2.40
2022-09-18T18:17:44.075Z,2.43
2022-09-18T18:19:15.852Z,2.27
2022-09-18T18:20:51.171Z,2.23
2022-09-18T18:22:23.973Z,2.20
2022-09-18T18:23:57.712Z,3.00
2022-09-18T18:25:33.051Z,2.53
2022-09-18T18:27:06.135Z,3.20
2022-09-18T18:28:40.009Z,2.60
2022-09-18T18:30:14.617Z,2.43
2022-09-18T18:31:49.025Z,2.30
2022-09-18T18:33:21.743Z,2.00
2022-09-18T18:34:55.353Z,1.90
2022-09-18T18:36:29.724Z,2.07
2022-09-18T18:38:02.553Z,2.00
2022-09-18T18:39:35.227Z,2.40
2022-09-18T18:41:08.843Z,2.47
2022-09-18T18:42:41.529Z,2.43
2022-09-18T18:44:14.288Z,2.43
2022-09-18T18:45:52.238Z,2.00
2022-09-18T18:47:25.159Z,1.90
2022-09-18T18:49:01.651Z,1.87
2022-09-18T18:50:34.448Z,2.00
2022-09-18T18:52:07.335Z,1.90
2022-09-18T18:53:40.022Z,2.00
2022-09-18T18:55:13.117Z,1.80
2022-09-18T18:56:47.537Z,1.80
2022-09-18T18:58:20.258Z,2.03
2022-09-18T18:59:52.920Z,1.80
2022-09-18T19:01:25.447Z,2.27
2022-09-18T19:02:58.582Z,2.27
2022-09-18T19:04:32.167Z,1.90
2022-09-18T19:06:04.168Z,2.10
2022-09-18T19:07:36.848Z,1.77
2022-09-18T19:09:10.627Z,2.23
2022-09-18T19:10:43.963Z,2.00
2022-09-18T19:12:18.130Z,1.93
2022-09-18T19:13:51.976Z,1.87
2022-09-18T19:15:25.293Z,1.80
2022-09-18T19:16:58.525Z,1.80
2022-09-18T19:18:30.324Z,1.80
2022-09-18T19:20:03.238Z,1.77
2022-09-18T19:21:36.628Z,1.70
2022-09-18T19:23:13.100Z,1.80
2022-09-18T19:24:45.863Z,1.70
2022-09-18T19:26:18.176Z,1.90
2022-09-18T19:27:55.131Z,1.67
2022-09-18T19:29:30.021Z,1.60
2022-09-18T19:31:04.956Z,1.70
2022-09-18T19:32:37.675Z,1.30
2022-09-18T19:34:12.016Z,1.30
2022-09-18T19:35:44.729Z,1.60
2022-09-18T19:37:18.376Z,1.30
2022-09-18T19:38:51.927Z,1.50
2022-09-18T19:40:24.729Z,1.40
2022-09-18T19:42:01.972Z,1.30
2022-09-18T19:43:37.501Z,1.30
2022-09-18T19:45:14.099Z,1.40
2022-09-18T19:46:47.978Z,1.60
2022-09-18T19:48:24.909Z,1.30
2022-09-18T19:49:58.655Z,1.17
2022-09-18T19:51:32.470Z,0.87
2022-09-18T19:53:05.177Z,1.10
2022-09-18T19:54:37.840Z,0.77
2022-09-18T19:56:27.512Z,0.80
2022-09-18T19:58:04.095Z,0.73
2022-09-18T19:59:38.099Z,0.60
2022-09-18T20:01:11.831Z,0.60
2022-09-18T20:02:44.609Z,0.70
2022-09-18T20:04:17.349Z,0.50
2022-09-18T20:05:50.043Z,0.60
2022-09-18T20:07:22.754Z,0.68
2022-09-18T20:08:56.749Z,0.60
2022-09-18T20:10:29.427Z,0.70
2022-09-18T20:12:02.480Z,0.70
2022-09-18T20:13:35.161Z,0.52
2022-09-18T20:15:11.419Z,0.60
2022-09-18T20:16:44.119Z,0.73
2022-09-18T20:18:17.140Z,0.52
2022-09-18T20:19:49.803Z,0.60
2022-09-18T20:21:23.564Z,0.65
2022-09-18T20:22:56.798Z,0.40
2022-09-18T20:24:29.837Z,0.55
2022-09-18T20:26:02.557Z,0.55
2022-09-18T20:27:37.291Z,0.70
2022-09-18T20:29:14.039Z,0.80
2022-09-18T20:30:49.781Z,0.80
2022-09-18T20:32:22.435Z,0.68
2022-09-18T20:33:56.320Z,0.60
2022-09-18T20:35:28.999Z,0.85
2022-09-18T20:37:02.858Z,0.70
2022-09-18T20:38:37.192Z,0.70
2022-09-18T20:40:12.753Z,0.52
2022-09-18T20:41:45.780Z,0.60
2022-09-18T20:43:18.710Z,0.80
2022-09-18T20:44:51.715Z,0.60
2022-09-18T20:46:27.309Z,0.60
2022-09-18T20:48:03.948Z,0.60
2022-09-18T20:49:39.656Z,0.57
2022-09-18T20:51:14.139Z,0.50
2022-09-18T20:52:47.692Z,0.65
2022-09-18T20:54:20.920Z,0.80
2022-09-18T20:55:58.314Z,0.60
2022-09-18T20:57:32.415Z,0.80
2022-09-18T20:59:05.341Z,0.50
2022-09-18T21:00:38.070Z,0.40
2022-09-18T21:02:12.141Z,0.40
2022-09-18T21:03:46.676Z,0.70
2022-09-18T21:05:20.666Z,0.55
2022-09-18T21:06:55.894Z,0.60
2022-09-18T21:08:30.590Z,0.80
2022-09-18T21:10:03.601Z,0.85
2022-09-18T21:11:37.976Z,0.68
2022-09-18T21:13:12.771Z,0.88
2022-09-18T21:14:45.559Z,0.90
2022-09-18T21:16:20.800Z,0.75
2022-09-18T21:17:54.900Z,0.63
2022-09-18T21:19:28.141Z,0.50
2022-09-18T21:21:04.319Z,0.77
2022-09-18T21:22:57.226Z,0.60
2022-09-18T21:24:29.020Z,0.60
2022-09-18T21:26:01.683Z,0.50
2022-09-18T21:27:34.429Z,0.50